KHTO

East Hampton Airport

East Hampton, New York, USA
METAR KHTO 222115Z AUTO 25004KT 10SM OVC110 09/00 A3018 RMK AO2 T00850000
Observed Flight Rules
Oct-22 @ 21:15 UTC (34 minutes ago) Visual Flight Rules
Wind Visibility Clouds
250° at 4 knots 10 miles
  • Overcast at 11,000' AGL
Temperatures Readings
Current 9°C / 48°F
Dewpoint 0°C / 32°F
Humidity 54%
Altimeter 30.18" Hg
Pressure 1022 hPa
Elevation 17
METAR KHTO 222115Z AUTO 25004KT 10SM OVC110 09/00 A3018 RMK AO2 T00850000
Observed Flight Rules
Oct-22 @ 21:15 UTC
(34 minutes ago)
VFR
Wind Visibility
250° at 4 knots 10 miles
Clouds
  • Overcast at 11,000' AGL
Temperature Dewpoint
9°C / 48°F 0°C / 32°F
Humidity Altimeter Pressure
54% 30.18" Hg 1022 hPa